Time;durP1;ratioP1;P1;durP2;ratioP2;P2;SDS_P1;SDS_P2;PMS_P1;PMS_P2;Temp;Humidity;BMP_temperature;BMP_pressure;BME280_temperature;BME280_humidity;BME280_pressure;Samples;Min_cycle;Max_cycle;Signal;HPM_P1;HPM_P2
2023/08/09 00:00:13;;;;;;;2.50;2.20;;;;;;;18.18;100.00;99606.82;104311;1257;73660;-62
2023/08/09 00:02:41;;;;;;;2.50;2.30;;;;;;;18.20;100.00;99610.38;104447;1269;69606;-62
2023/08/09 00:05:08;;;;;;;2.80;2.60;;;;;;;18.24;100.00;99611.65;105135;1253;71542;-62
2023/08/09 00:07:36;;;;;;;;;;;;;;;18.21;100.00;99612.58;108355;1251;60432;-66
2023/08/09 00:10:04;;;;;;;2.60;2.20;;;;;;;18.16;100.00;99610.50;105628;1253;60578;-62
2023/08/09 00:12:32;;;;;;;2.70;2.50;;;;;;;18.10;100.00;99608.28;104428;1252;73729;-62
2023/08/09 00:14:59;;;;;;;4.10;2.50;;;;;;;18.02;100.00;99605.70;104585;1256;70019;-63
2023/08/09 00:17:27;;;;;;;3.80;2.80;;;;;;;18.03;100.00;99606.73;104681;1257;73384;-63
2023/08/09 00:19:55;;;;;;;3.70;2.50;;;;;;;18.08;100.00;99604.40;104283;1253;61756;-63
2023/08/09 00:22:23;;;;;;;3.20;3.00;;;;;;;18.08;100.00;99606.34;104445;1256;60437;-63
2023/08/09 00:24:51;;;;;;;;;;;;;;;18.05;100.00;99611.48;104492;1256;74274;-63
2023/08/09 00:27:18;;;;;;;;;;;;;;;18.00;100.00;99617.36;104409;1256;69678;-62
2023/08/09 00:29:46;;;;;;;;;;;;;;;17.95;100.00;99616.86;104315;1257;73318;-63
2023/08/09 00:32:15;;;;;;;3.20;2.90;;;;;;;17.90;100.00;99620.40;104292;1258;60520;-62
2023/08/09 00:34:43;;;;;;;2.90;2.70;;;;;;;17.86;100.00;99620.02;104468;1253;60568;-63
2023/08/09 00:37:11;;;;;;;6.00;2.80;;;;;;;17.85;100.00;99624.86;104411;1255;73595;-63
2023/08/09 00:39:39;;;;;;;2.90;2.70;;;;;;;17.84;100.00;99626.16;104282;1260;69213;-63
2023/08/09 00:42:07;;;;;;;8.50;3.00;;;;;;;17.84;100.00;99629.16;104451;1256;72680;-63
2023/08/09 00:44:35;;;;;;;5.00;3.10;;;;;;;17.82;100.00;99634.11;104431;1254;61401;-63
2023/08/09 00:47:03;;;;;;;3.90;2.70;;;;;;;17.82;100.00;99636.75;104578;1257;59707;-65
2023/08/09 00:49:31;;;;;;;4.20;3.00;;;;;;;17.75;100.00;99635.30;104463;1257;73694;-65
2023/08/09 00:51:59;;;;;;;6.40;2.80;;;;;;;17.67;100.00;99637.09;104349;1253;69119;-64
2023/08/09 00:54:27;;;;;;;5.10;3.10;;;;;;;17.63;100.00;99635.83;104336;1259;72411;-64
2023/08/09 00:56:55;;;;;;;14.50;3.30;;;;;;;17.62;100.00;99637.16;104311;1253;61382;-64
2023/08/09 00:59:23;;;;;;;;;;;;;;;17.68;100.00;99639.34;107416;1253;60537;-67
2023/08/09 01:01:50;;;;;;;3.60;2.80;;;;;;;17.67;100.00;99639.27;104313;1258;73230;-63
2023/08/09 01:04:19;;;;;;;3.10;2.60;;;;;;;17.63;100.00;99644.11;104380;1257;69055;-64
2023/08/09 01:06:57;;;;;;;2.60;2.40;;;;;;;17.57;100.00;99649.21;104390;1254;73435;-64
2023/08/09 01:09:43;;;;;;;;;;;;;;;17.52;100.00;99654.52;107781;1252;62306;-64
2023/08/09 01:12:12;;;;;;;4.90;2.70;;;;;;;17.49;100.00;99657.38;104625;1257;59869;-64
2023/08/09 01:14:41;;;;;;;3.00;2.80;;;;;;;17.42;100.00;99655.92;104659;1251;75069;-62
2023/08/09 01:17:14;;;;;;;3.90;3.20;;;;;;;17.36;100.00;99653.69;104565;1259;69058;-65
2023/08/09 01:19:51;;;;;;;4.10;3.20;;;;;;;17.29;100.00;99650.80;104910;1253;73800;-66
2023/08/09 01:22:23;;;;;;;5.90;2.90;;;;;;;17.30;100.00;99653.59;104565;1257;61497;-65
2023/08/09 01:24:51;;;;;;;4.40;3.20;;;;;;;17.31;100.00;99652.98;104393;1261;60553;-65
2023/08/09 01:27:19;;;;;;;4.80;3.00;;;;;;;17.34;100.00;99650.98;104319;1258;74158;-65
2023/08/09 01:29:47;;;;;;;8.40;3.60;;;;;;;17.36;100.00;99655.63;104398;1255;69299;-65
2023/08/09 01:32:14;;;;;;;4.60;2.70;;;;;;;17.36;100.00;99656.70;104227;1256;73342;-65
2023/08/09 01:34:42;;;;;;;5.80;2.80;;;;;;;17.37;100.00;99659.85;104170;1252;61413;-65
2023/08/09 01:37:14;;;;;;;;;;;;;;;17.37;100.00;99662.16;104401;1251;60533;-65
2023/08/09 01:39:42;;;;;;;6.10;2.90;;;;;;;17.34;100.00;99662.36;104711;1254;74106;-64
2023/08/09 01:42:10;;;;;;;;;;;;;;;17.31;100.00;99665.20;104451;1257;69556;-64
2023/08/09 01:44:37;;;;;;;5.30;3.10;;;;;;;17.25;100.00;99666.15;104319;1270;72403;-64
2023/08/09 01:47:05;;;;;;;4.90;3.60;;;;;;;17.16;100.00;99662.71;104400;1253;62256;-64
2023/08/09 01:49:33;;;;;;;;;;;;;;;17.21;100.00;99664.16;104242;1264;60536;-64
2023/08/09 01:52:01;;;;;;;;;;;;;;;17.13;100.00;99666.45;104501;1251;74021;-63
2023/08/09 01:54:28;;;;;;;;;;;;;;;17.03;100.00;99666.27;104362;1275;69203;-63
2023/08/09 01:56:56;;;;;;;4.90;2.80;;;;;;;17.07;100.00;99669.18;104300;1274;72326;-63
2023/08/09 01:59:24;;;;;;;3.30;3.10;;;;;;;17.03;100.00;99671.92;104419;1257;61350;-63
2023/08/09 02:01:51;;;;;;;4.20;2.70;;;;;;;16.95;100.00;99678.16;104375;1260;60562;-63
2023/08/09 02:04:19;;;;;;;5.10;3.30;;;;;;;16.89;100.00;99675.71;104351;1274;73692;-63
2023/08/09 02:06:47;;;;;;;7.30;3.00;;;;;;;16.88;100.00;99677.54;104355;1275;70096;-63
2023/08/09 02:09:16;;;;;;;3.30;3.00;;;;;;;16.86;100.00;99679.99;104403;1260;71515;-63
2023/08/09 02:11:44;;;;;;;3.10;2.80;;;;;;;16.84;100.00;99680.50;105343;1254;61078;-63
2023/08/09 02:14:11;;;;;;;4.50;3.30;;;;;;;16.83;100.00;99682.35;104451;1253;60488;-64
2023/08/09 02:16:40;;;;;;;6.50;3.10;;;;;;;16.84;100.00;99686.15;104485;1257;73719;-64
2023/08/09 02:19:09;;;;;;;4.10;3.00;;;;;;;16.82;100.00;99691.61;104311;1256;69956;-64
2023/08/09 02:21:38;;;;;;;5.80;3.10;;;;;;;16.78;100.00;99695.71;104398;1255;72528;-63
2023/08/09 02:24:07;;;;;;;4.10;3.20;;;;;;;16.81;100.00;99693.43;104459;1257;61420;-64
2023/08/09 02:26:35;;;;;;;5.10;3.10;;;;;;;16.81;100.00;99690.95;104221;1257;60534;-64
2023/08/09 02:29:03;;;;;;;3.30;3.00;;;;;;;16.77;100.00;99691.91;104330;1257;73673;-63
2023/08/09 02:31:34;;;;;;;4.20;3.30;;;;;;;16.72;100.00;99699.99;104341;1255;69205;-63
2023/08/09 02:34:02;;;;;;;6.20;3.50;;;;;;;16.73;100.00;99702.96;104435;1257;72787;-63
2023/08/09 02:36:30;;;;;;;3.60;3.30;;;;;;;16.77;100.00;99702.17;104266;1251;61429;-63
2023/08/09 02:38:58;;;;;;;3.70;3.40;;;;;;;16.78;100.00;99705.48;104360;1255;60602;-63
2023/08/09 02:41:26;;;;;;;;;;;;;;;16.81;100.00;99704.42;104280;1274;73658;-63
2023/08/09 02:43:53;;;;;;;3.40;3.20;;;;;;;16.81;100.00;99713.09;104436;1259;70208;-64
2023/08/09 02:46:21;;;;;;;5.00;3.80;;;;;;;16.80;100.00;99716.51;104545;1269;72543;-63
2023/08/09 02:48:49;;;;;;;5.50;3.70;;;;;;;16.71;100.00;99721.88;104308;1252;62422;-64
2023/08/09 02:51:18;;;;;;;7.00;4.10;;;;;;;16.69;100.00;99724.87;104438;1256;60593;-65
2023/08/09 02:54:00;;;;;;;7.90;4.30;;;;;;;16.79;100.00;99726.84;104417;1269;72752;-64
2023/08/09 02:56:28;;;;;;;4.20;3.70;;;;;;;16.82;100.00;99731.41;104334;1257;69117;-65
2023/08/09 02:58:56;;;;;;;6.50;3.60;;;;;;;16.82;100.00;99732.14;104280;1274;72155;-65
2023/08/09 03:01:24;;;;;;;4.80;4.30;;;;;;;16.82;100.00;99733.37;104390;1253;61407;-65
2023/08/09 03:03:53;;;;;;;7.20;4.10;;;;;;;16.74;100.00;99730.14;104494;1258;60935;-66
2023/08/09 03:06:22;;;;;;;7.30;4.30;;;;;;;16.69;100.00;99726.79;104451;1259;73686;-65
2023/08/09 03:08:50;;;;;;;4.00;3.50;;;;;;;16.67;100.00;99725.66;108346;1256;69128;-66
2023/08/09 03:11:23;;;;;;;4.30;3.60;;;;;;;16.78;100.00;99721.42;106837;1256;71939;-65
2023/08/09 03:13:52;;;;;;;3.60;3.30;;;;;;;16.81;100.00;99727.21;104588;1256;62193;-66
2023/08/09 03:16:20;;;;;;;;;;;;;;;16.81;100.00;99729.20;104617;1256;60498;-66
2023/08/09 03:18:48;;;;;;;4.30;3.70;;;;;;;16.81;100.00;99730.61;104439;1253;74499;-66
2023/08/09 03:21:17;;;;;;;4.60;4.10;;;;;;;16.81;100.00;99734.35;104617;1255;69650;-65
2023/08/09 03:23:44;;;;;;;4.50;4.10;;;;;;;16.83;100.00;99734.73;104299;1269;72031;-65
2023/08/09 03:26:13;;;;;;;3.70;3.30;;;;;;;16.83;100.00;99735.61;104387;1256;61615;-66
2023/08/09 03:28:42;;;;;;;5.20;4.10;;;;;;;16.84;100.00;99740.15;104363;1251;60562;-67
2023/08/09 03:31:11;;;;;;;7.70;4.20;;;;;;;16.86;100.00;99740.58;104299;1259;73594;-66
2023/08/09 03:33:39;;;;;;;8.10;3.70;;;;;;;16.87;100.00;99742.59;104445;1263;69001;-67
2023/08/09 03:36:07;;;;;;;;;;;;;;;16.91;100.00;99743.77;104282;1275;72186;-66
2023/08/09 03:38:35;;;;;;;4.30;3.80;;;;;;;16.94;100.00;99746.92;104405;1271;61457;-66
2023/08/09 03:41:03;;;;;;;4.20;3.80;;;;;;;16.96;100.00;99748.58;104320;1259;60144;-67
2023/08/09 03:43:31;;;;;;;7.20;3.70;;;;;;;16.99;100.00;99751.39;104227;1275;74457;-67
2023/08/09 03:45:58;;;;;;;;;;;;;;;17.02;100.00;99755.77;104678;1256;69173;-67
2023/08/09 03:48:27;;;;;;;5.80;4.00;;;;;;;17.06;100.00;99760.79;104357;1268;72936;-66
2023/08/09 03:50:55;;;;;;;3.80;3.50;;;;;;;17.06;100.00;99763.30;104308;1255;60975;-66
2023/08/09 03:53:22;;;;;;;4.70;4.00;;;;;;;17.06;100.00;99762.75;104537;1266;59332;-65
2023/08/09 03:55:51;;;;;;;;;;;;;;;17.13;100.00;99762.80;104812;1258;72690;-65
2023/08/09 03:58:19;;;;;;;4.30;3.50;;;;;;;17.17;100.00;99770.48;104259;1275;69258;-65
2023/08/09 04:00:47;;;;;;;4.90;3.80;;;;;;;17.17;100.00;99770.88;104591;1257;72386;-64
2023/08/09 04:03:17;;;;;;;5.00;4.50;;;;;;;17.17;100.00;99770.64;104362;1258;61530;-64
2023/08/09 04:05:44;;;;;;;4.80;3.70;;;;;;;17.14;100.00;99775.65;104425;1253;60597;-63
2023/08/09 04:08:12;;;;;;;5.60;3.70;;;;;;;17.25;100.00;99775.09;104491;1253;74076;-62
2023/08/09 04:10:40;;;;;;;7.50;4.10;;;;;;;17.28;100.00;99777.40;104397;1269;70068;-62
2023/08/09 04:13:08;;;;;;;;;;;;;;;17.36;100.00;99781.06;105092;1253;72494;-62
2023/08/09 04:15:35;;;;;;;;;;;;;;;17.37;100.00;99784.56;104363;1257;61799;-62
2023/08/09 04:18:04;;;;;;;7.00;3.60;;;;;;;17.43;100.00;99785.88;104616;1252;60571;-62
2023/08/09 04:20:31;;;;;;;4.30;3.30;;;;;;;17.44;100.00;99788.64;104671;1266;73809;-63
2023/08/09 04:23:03;;;;;;;4.70;3.90;;;;;;;17.53;100.00;99792.13;104489;1256;69620;-63
2023/08/09 04:25:31;;;;;;;4.80;3.90;;;;;;;17.59;100.00;99791.92;104256;1274;72360;-62
2023/08/09 04:27:59;;;;;;;5.00;3.50;;;;;;;17.62;100.00;99795.73;104389;1265;61800;-62
2023/08/09 04:30:26;;;;;;;4.70;3.30;;;;;;;17.68;100.00;99797.31;104315;1256;60559;-63
2023/08/09 04:32:55;;;;;;;3.70;3.30;;;;;;;17.79;100.00;99792.99;104288;1256;74140;-63
2023/08/09 04:35:23;;;;;;;4.70;3.50;;;;;;;17.83;100.00;99797.11;104312;1257;69163;-63
2023/08/09 04:37:51;;;;;;;5.80;4.10;;;;;;;17.87;100.00;99796.00;104478;1253;71520;-63
2023/08/09 04:40:18;;;;;;;;;;;;;;;17.93;100.00;99797.34;108482;1251;61799;-64
2023/08/09 04:42:47;;;;;;;3.50;3.20;;;;;;;17.94;100.00;99800.63;108539;1251;59551;-64
2023/08/09 04:45:15;;;;;;;3.20;2.90;;;;;;;18.12;100.00;99803.43;108611;1250;72630;-64
2023/08/09 04:47:43;;;;;;;3.30;2.70;;;;;;;18.24;100.00;99805.05;108606;1250;69239;-64
2023/08/09 04:50:12;;;;;;;5.70;3.00;;;;;;;18.25;100.00;99802.48;108574;1250;72479;-64
2023/08/09 04:52:41;;;;;;;4.50;3.10;;;;;;;18.35;100.00;99809.83;108514;1251;61293;-64
2023/08/09 04:55:11;;;;;;;3.90;3.30;;;;;;;18.52;100.00;99808.16;108477;1251;59717;-63
2023/08/09 04:57:38;;;;;;;4.80;2.50;;;;;;;18.67;100.00;99802.85;108409;1250;73627;-66
2023/08/09 05:00:10;;;;;;;3.30;2.90;;;;;;;18.77;100.00;99799.59;108468;1250;69434;-66
2023/08/09 05:02:38;;;;;;;3.40;2.80;;;;;;;18.83;100.00;99800.09;108408;1250;72516;-67
2023/08/09 05:05:09;;;;;;;4.90;2.80;;;;;;;18.85;100.00;99797.23;108560;1253;61383;-66
2023/08/09 05:07:37;;;;;;;3.10;2.80;;;;;;;18.94;100.00;99797.82;108434;1251;59963;-67
2023/08/09 05:10:06;;;;;;;;;;;;;;;19.03;100.00;99797.70;108517;1251;72709;-67
2023/08/09 05:12:35;;;;;;;4.50;3.00;;;;;;;19.11;100.00;99808.15;108472;1250;69131;-66
2023/08/09 05:15:04;;;;;;;4.70;2.70;;;;;;;19.20;100.00;99810.48;108420;1251;73378;-67
2023/08/09 05:17:32;;;;;;;2.80;2.50;;;;;;;19.31;100.00;99805.36;107960;1251;61571;-68
2023/08/09 05:20:00;;;;;;;3.60;2.50;;;;;;;19.40;100.00;99805.55;108475;1251;59775;-67
2023/08/09 05:22:28;;;;;;;4.20;2.40;;;;;;;19.53;100.00;99803.10;108483;1250;74528;-66
2023/08/09 05:24:55;;;;;;;3.90;2.60;;;;;;;19.62;100.00;99804.00;108580;1251;69366;-67
2023/08/09 05:27:23;;;;;;;4.30;2.90;;;;;;;19.70;100.00;99805.52;108496;1251;72320;-65
2023/08/09 05:29:50;;;;;;;4.10;2.90;;;;;;;19.81;100.00;99805.41;108541;1250;61550;-65
2023/08/09 05:32:18;;;;;;;3.80;2.60;;;;;;;19.96;100.00;99806.34;108594;1250;59875;-66
2023/08/09 05:34:46;;;;;;;;;;;;;;;20.08;100.00;99808.98;108560;1251;72681;-66
2023/08/09 05:37:13;;;;;;;3.30;3.00;;;;;;;20.17;100.00;99809.83;108546;1252;69614;-63
2023/08/09 05:39:41;;;;;;;3.60;2.10;;;;;;;20.25;100.00;99810.64;108484;1253;72355;-66
2023/08/09 05:42:09;;;;;;;6.40;2.50;;;;;;;20.32;100.00;99814.16;108580;1255;61667;-64
2023/08/09 05:44:37;;;;;;;;;;;;;;;20.39;100.00;99815.55;108612;1253;58821;-64
2023/08/09 05:47:04;;;;;;;3.10;2.80;;;;;;;20.49;100.00;99816.75;108473;1253;76017;-63
2023/08/09 05:49:32;;;;;;;4.50;2.80;;;;;;;20.54;100.00;99818.25;108482;1253;68023;-64
2023/08/09 05:52:00;;;;;;;4.00;2.30;;;;;;;20.53;100.00;99821.73;108514;1253;72370;-63
2023/08/09 05:54:28;;;;;;;3.90;2.40;;;;;;;20.60;100.00;99830.23;108567;1253;61733;-63
2023/08/09 05:56:55;;;;;;;4.70;2.30;;;;;;;20.64;100.00;99827.09;108557;1252;60729;-62
2023/08/09 05:59:23;;;;;;;3.60;2.40;;;;;;;20.80;100.00;99824.89;108510;1251;72402;-63
2023/08/09 06:01:51;;;;;;;4.30;2.20;;;;;;;20.92;100.00;99820.85;108539;1253;69987;-65
2023/08/09 06:04:18;;;;;;;;;;;;;;;21.01;100.00;99821.04;108626;1253;72984;-63
2023/08/09 06:06:46;;;;;;;3.70;2.20;;;;;;;21.07;100.00;99818.40;108539;1253;62417;-65
2023/08/09 06:09:14;;;;;;;2.20;1.90;;;;;;;21.04;100.00;99819.16;108487;1253;59964;-64
2023/08/09 06:11:59;;;;;;;2.60;1.70;;;;;;;21.16;100.00;99823.53;108360;1251;73648;-64
2023/08/09 06:14:26;;;;;;;5.80;1.90;;;;;;;21.33;100.00;99818.17;108403;1253;69228;-65
2023/08/09 06:16:54;;;;;;;3.70;2.20;;;;;;;21.28;100.00;99820.51;108419;1251;71481;-63
2023/08/09 06:19:22;;;;;;;3.20;2.10;;;;;;;21.32;100.00;99825.86;108308;1253;62029;-62
2023/08/09 06:21:49;;;;;;;3.00;2.20;;;;;;;21.39;100.00;99823.34;108461;1252;59802;-62
2023/08/09 06:24:17;;;;;;;3.50;2.00;;;;;;;21.47;100.00;99821.59;108546;1252;73592;-63
2023/08/09 06:26:45;;;;;;;10.00;1.70;;;;;;;21.55;100.00;99820.20;108614;1251;69172;-68
2023/08/09 06:29:13;;;;;;;;;;;;;;;21.63;100.00;99821.00;108365;1256;72320;-65
2023/08/09 06:31:40;;;;;;;;;;;;;;;21.75;100.00;99818.54;108500;1253;61490;-64
2023/08/09 06:34:08;;;;;;;;;;;;;;;21.84;100.00;99815.02;108576;1250;60445;-65
2023/08/09 06:36:36;;;;;;;3.20;1.90;;;;;;;21.84;100.00;99817.54;108530;1250;74349;-64
2023/08/09 06:39:04;;;;;;;2.30;1.90;;;;;;;21.84;100.00;99820.08;108510;1250;68257;-66
2023/08/09 06:41:31;;;;;;;3.00;1.70;;;;;;;21.91;100.00;99819.48;108487;1251;72339;-65
2023/08/09 06:43:59;;;;;;;3.20;1.90;;;;;;;21.98;100.00;99820.48;108447;1253;60718;-65
2023/08/09 06:46:27;;;;;;;5.30;2.00;;;;;;;22.02;100.00;99823.08;108598;1251;60724;-64
2023/08/09 06:48:55;;;;;;;2.30;1.70;;;;;;;22.11;100.00;99820.21;108515;1250;73708;-65
2023/08/09 06:51:23;;;;;;;5.50;2.10;;;;;;;22.16;100.00;99820.42;108518;1251;69180;-66
2023/08/09 06:53:51;;;;;;;3.60;1.80;;;;;;;22.26;100.00;99821.58;108553;1250;72799;-64
2023/08/09 06:56:18;;;;;;;5.10;1.90;;;;;;;22.34;100.00;99822.46;108468;1252;61565;-63
2023/08/09 06:58:46;;;;;;;2.50;1.60;;;;;;;22.42;100.00;99821.80;108420;1257;59888;-63
2023/08/09 07:01:14;;;;;;;3.50;1.90;;;;;;;22.52;100.00;99821.56;108500;1250;73581;-62
2023/08/09 07:03:41;;;;;;;;;;;;;;;22.59;97.37;99820.11;108582;1250;69161;-63
2023/08/09 07:06:09;;;;;;;2.50;1.80;;;;;;;22.65;99.41;99818.61;108557;1251;72459;-64
2023/08/09 07:08:37;;;;;;;4.30;1.50;;;;;;;22.69;99.75;99818.30;108564;1253;59916;-62
2023/08/09 07:11:04;;;;;;;;;;;;;;;22.74;92.21;99820.86;108449;1251;60688;-63
2023/08/09 07:13:32;;;;;;;;;;;;;;;22.79;91.63;99815.63;108398;1251;73888;-67
2023/08/09 07:16:02;;;;;;;4.40;1.60;;;;;;;22.80;89.92;99819.41;108362;1250;69346;-70
2023/08/09 07:18:30;;;;;;;5.20;1.80;;;;;;;22.82;88.66;99820.34;108398;1253;72958;-65
2023/08/09 07:20:58;;;;;;;;;;;;;;;22.88;88.53;99825.98;108427;1253;60191;-69
2023/08/09 07:23:25;;;;;;;;;;;;;;;22.95;87.11;99822.33;108479;1251;59715;-68
2023/08/09 07:26:13;;;;;;;2.00;1.30;;;;;;;22.99;86.95;99822.13;108509;1250;74056;-66
2023/08/09 07:28:40;;;;;;;2.70;1.60;;;;;;;23.04;85.18;99822.29;108549;1250;69899;-71
2023/08/09 07:31:22;;;;;;;4.50;1.60;;;;;;;23.08;80.75;99821.67;108537;1251;72477;-70
2023/08/09 07:33:49;;;;;;;4.80;1.90;;;;;;;23.08;79.32;99823.84;108490;1252;59780;-71
2023/08/09 07:39:25;;;;;;;4.30;1.70;;;;;;;23.26;84.04;99824.00;101696;1293;601509;-69
2023/08/09 07:41:52;;;;;;;5.60;1.60;;;;;;;23.33;83.76;99821.87;103926;1272;59762;-68
2023/08/09 07:44:20;;;;;;;1.90;1.60;;;;;;;23.41;85.01;99820.23;103642;1272;60361;-66
2023/08/09 07:46:47;;;;;;;2.30;1.60;;;;;;;23.47;80.03;99824.02;107022;1264;72466;-66
2023/08/09 07:49:56;;;;;;;3.70;1.60;;;;;;;23.19;82.88;99824.93;101276;1304;601435;-67
2023/08/09 07:52:24;;;;;;;2.00;1.70;;;;;;;23.49;79.51;99820.61;103811;1267;59494;-66
2023/08/09 07:54:52;;;;;;;;;;;;;;;23.55;79.30;99821.07;103516;1271;60079;-67
2023/08/09 07:57:19;;;;;;;3.20;1.70;;;;;;;23.61;79.71;99821.09;103568;1270;72461;-69
2023/08/09 07:59:47;;;;;;;2.50;1.50;;;;;;;23.67;76.43;99820.98;103662;1271;69568;-68
2023/08/09 08:02:15;;;;;;;3.10;1.70;;;;;;;23.74;74.67;99819.63;103538;1270;72104;-68
2023/08/09 08:04:42;;;;;;;;;;;;;;;23.76;71.73;99818.08;103178;1268;1082752;-70
2023/08/09 08:07:10;;;;;;;1.60;1.50;;;;;;;23.75;70.19;99822.81;103862;1269;60446;-68
2023/08/09 08:09:41;;;;;;;5.10;1.90;;;;;;;23.74;70.21;99818.39;103923;1269;71833;-68
2023/08/09 08:12:08;;;;;;;2.40;1.60;;;;;;;23.72;69.17;99822.86;104021;1264;69068;-68
2023/08/09 08:14:49;;;;;;;2.20;1.80;;;;;;;23.83;71.33;99825.63;104028;1267;72245;-68
2023/08/09 08:17:17;;;;;;;4.00;1.40;;;;;;;23.86;65.63;99821.71;104178;1264;59764;-67
2023/08/09 08:19:44;;;;;;;2.50;1.60;;;;;;;23.92;68.43;99818.39;103993;1270;59722;-66
2023/08/09 08:22:13;;;;;;;2.10;1.70;;;;;;;23.91;66.83;99815.02;104014;1264;73181;-66
2023/08/09 08:24:41;;;;;;;1.40;1.30;;;;;;;24.00;67.44;99815.23;104191;1268;69366;-66
2023/08/09 08:27:09;;;;;;;;;;;;;;;24.10;66.95;99814.48;103842;1267;73315;-68
2023/08/09 08:29:37;;;;;;;1.80;1.40;;;;;;;24.20;68.00;99816.17;104958;1257;59792;-67
2023/08/09 08:32:05;;;;;;;3.00;1.60;;;;;;;24.32;67.25;99821.28;108374;1253;59036;-70
2023/08/09 08:34:34;;;;;;;3.10;1.80;;;;;;;24.35;65.44;99819.06;106867;1253;72975;-74
2023/08/09 08:37:02;;;;;;;2.70;1.50;;;;;;;24.24;64.46;99821.90;104750;1267;70113;-69
2023/08/09 08:39:31;;;;;;;;;;;;;;;24.15;65.18;99820.27;104593;1259;72534;-65
2023/08/09 08:41:58;;;;;;;1.70;1.60;;;;;;;24.08;62.64;99825.72;104840;1258;59921;-70
2023/08/09 08:44:27;;;;;;;3.30;1.50;;;;;;;23.99;62.89;99821.38;104706;1257;59817;-71
2023/08/09 08:46:54;;;;;;;;;;;;;;;24.05;62.57;99821.92;104431;1276;73042;-67
2023/08/09 08:49:25;;;;;;;;;;;;;;;24.09;61.23;99823.45;104476;1254;69989;-67
2023/08/09 08:51:56;;;;;;;4.30;1.80;;;;;;;24.14;63.86;99820.33;104272;1258;72925;-67
2023/08/09 08:54:24;;;;;;;1.70;1.40;;;;;;;24.14;63.85;99823.34;104297;1256;60099;-69
2023/08/09 08:56:52;;;;;;;;;;;;;;;24.27;66.44;99820.88;104285;1257;60054;-64
2023/08/09 08:59:20;;;;;;;3.60;1.50;;;;;;;24.40;62.80;99825.34;104459;1254;72961;-68
2023/08/09 09:01:48;;;;;;;3.10;1.70;;;;;;;24.46;62.63;99825.98;104321;1271;68825;-69
2023/08/09 09:04:16;;;;;;;;;;;;;;;24.55;60.18;99820.17;104379;1254;71125;-69
2023/08/09 09:06:43;;;;;;;2.20;1.70;;;;;;;24.57;59.81;99821.55;104537;1254;60757;-67
2023/08/09 09:09:15;;;;;;;3.00;1.90;;;;;;;24.57;60.29;99824.63;104292;1254;59691;-67
2023/08/09 09:11:43;;;;;;;2.80;1.70;;;;;;;24.65;60.95;99824.34;106670;1254;73744;-70
2023/08/09 09:14:12;;;;;;;4.40;1.60;;;;;;;24.72;61.15;99831.33;108261;1254;70096;-69
2023/08/09 09:16:41;;;;;;;3.40;1.50;;;;;;;24.78;58.79;99827.55;104901;1276;72602;-70
2023/08/09 09:19:09;;;;;;;2.60;1.90;;;;;;;24.78;57.13;99829.91;104780;1262;60346;-65
2023/08/09 09:21:40;;;;;;;3.60;1.60;;;;;;;24.81;57.04;99829.16;104488;1270;60265;-69
2023/08/09 09:24:09;;;;;;;2.40;1.40;;;;;;;24.84;56.28;99830.17;104868;1257;72875;-70
2023/08/09 09:26:39;;;;;;;1.60;1.50;;;;;;;25.00;56.61;99824.86;104676;1257;69550;-69
2023/08/09 09:29:08;;;;;;;2.10;1.40;;;;;;;25.16;56.19;99818.21;104540;1275;71223;-68
2023/08/09 09:31:40;;;;;;;2.50;1.80;;;;;;;25.29;60.91;99820.45;104377;1254;60694;-69
2023/08/09 09:34:11;;;;;;;1.80;1.60;;;;;;;25.48;62.08;99824.41;104399;1257;60070;-67
2023/08/09 09:36:39;;;;;;;3.50;2.00;;;;;;;25.65;61.61;99826.48;104455;1254;72895;-69
2023/08/09 09:39:09;;;;;;;3.20;1.50;;;;;;;25.72;58.54;99825.01;104360;1262;69613;-69
2023/08/09 09:41:38;;;;;;;3.80;1.40;;;;;;;25.72;58.57;99818.23;104452;1255;72607;-68
2023/08/09 09:44:06;;;;;;;2.50;1.50;;;;;;;25.76;59.01;99819.61;104352;1260;59701;-68
2023/08/09 09:46:33;;;;;;;;;;;;;;;25.83;56.10;99815.61;104687;1271;60301;-69
2023/08/09 09:49:05;;;;;;;4.20;1.80;;;;;;;25.88;54.75;99814.55;104377;1257;72882;-69
2023/08/09 09:51:34;;;;;;;2.70;1.50;;;;;;;25.83;54.24;99814.91;104451;1275;69804;-71
2023/08/09 09:54:04;;;;;;;3.30;1.50;;;;;;;25.77;52.83;99812.16;104254;1275;72544;-67
2023/08/09 09:56:32;;;;;;;1.70;1.50;;;;;;;25.75;54.37;99813.77;104592;1254;60476;-69
2023/08/09 09:59:02;;;;;;;2.50;1.50;;;;;;;25.67;51.19;99813.70;104525;1254;59766;-67
2023/08/09 10:01:31;;;;;;;1.90;1.40;;;;;;;25.69;53.92;99813.88;104524;1252;72701;-68
2023/08/09 10:04:06;;;;;;;2.60;1.50;;;;;;;25.62;51.71;99810.06;104306;1275;70099;-67
2023/08/09 10:06:39;;;;;;;1.20;1.20;;;;;;;25.75;51.85;99809.88;104302;1257;72382;-64
2023/08/09 10:09:08;;;;;;;4.20;1.20;;;;;;;25.76;50.67;99807.42;104387;1254;60802;-67
2023/08/09 10:11:36;;;;;;;3.50;1.40;;;;;;;25.79;51.86;99806.03;106035;1254;59676;-67
2023/08/09 10:14:05;;;;;;;;;;;;;;;25.78;52.50;99805.41;108245;1253;71668;-64
2023/08/09 10:16:33;;;;;;;1.80;1.40;;;;;;;25.84;53.43;99805.11;105751;1256;69491;-66
2023/08/09 10:19:04;;;;;;;2.80;1.50;;;;;;;25.96;54.64;99806.02;104545;1258;72503;-65
2023/08/09 10:21:32;;;;;;;1.80;1.40;;;;;;;26.11;53.50;99802.73;104490;1257;61450;-65
2023/08/09 10:24:06;;;;;;;1.70;1.40;;;;;;;26.21;53.87;99803.95;104614;1266;59771;-66
2023/08/09 10:26:39;;;;;;;1.50;1.40;;;;;;;26.31;51.13;99805.27;104420;1260;72783;-66
2023/08/09 10:29:12;;;;;;;4.20;1.50;;;;;;;26.43;48.76;99804.16;104265;1258;69278;-66
2023/08/09 10:31:57;;;;;;;2.10;1.60;;;;;;;26.51;47.94;99806.14;104309;1257;72731;-66
2023/08/09 10:34:40;;;;;;;1.80;1.60;;;;;;;26.48;45.67;99803.67;108403;1253;59926;-67
2023/08/09 10:37:12;;;;;;;3.40;1.50;;;;;;;26.25;43.44;99809.42;107072;1253;60003;-66
2023/08/09 10:39:41;;;;;;;1.70;1.30;;;;;;;26.30;45.68;99798.94;104572;1254;73035;-65
2023/08/09 10:42:09;;;;;;;2.10;1.60;;;;;;;26.29;46.40;99801.66;104374;1267;68418;-65
2023/08/09 10:44:44;;;;;;;2.10;1.30;;;;;;;26.33;47.23;99801.73;104502;1257;72403;-67
2023/08/09 10:47:14;;;;;;;3.20;1.30;;;;;;;26.42;45.65;99796.85;104568;1257;60112;-65
2023/08/09 10:49:48;;;;;;;1.90;1.50;;;;;;;26.49;46.36;99791.14;104304;1257;60782;-67
2023/08/09 10:52:40;;;;;;;3.60;1.70;;;;;;;26.40;47.48;99796.73;104362;1259;72053;-66
2023/08/09 10:55:21;;;;;;;2.40;1.30;;;;;;;26.28;46.86;99797.34;104286;1275;69029;-66
2023/08/09 10:57:49;;;;;;;3.50;1.30;;;;;;;26.31;48.29;99796.08;104289;1260;72485;-66
2023/08/09 11:00:18;;;;;;;1.90;1.20;;;;;;;26.37;47.29;99796.90;104321;1254;60417;-66
2023/08/09 11:02:53;;;;;;;3.30;1.10;;;;;;;26.22;42.60;99796.89;104610;1257;60059;-67
2023/08/09 11:05:22;;;;;;;1.70;1.10;;;;;;;26.33;43.11;99792.10;104344;1258;72915;-69
2023/08/09 11:07:57;;;;;;;1.40;1.10;;;;;;;26.39;42.33;99794.69;104651;1252;69748;-69
2023/08/09 11:10:42;;;;;;;1.10;0.80;;;;;;;26.43;41.83;99791.63;106620;1254;72496;-67
2023/08/09 11:13:12;;;;;;;1.60;1.20;;;;;;;26.40;42.80;99792.60;107251;1253;60782;-68
2023/08/09 11:15:44;;;;;;;1.70;1.60;;;;;;;26.58;42.39;99800.20;108166;1254;59690;-68
2023/08/09 11:18:12;;;;;;;1.10;1.00;;;;;;;26.68;42.13;99792.88;104896;1256;73416;-68
2023/08/09 11:20:40;;;;;;;1.50;1.30;;;;;;;26.85;41.51;99789.84;104358;1254;68147;-66
2023/08/09 11:23:08;;;;;;;2.30;1.20;;;;;;;26.90;41.80;99789.04;104517;1254;72427;-65
2023/08/09 11:25:39;;;;;;;2.70;1.20;;;;;;;26.84;40.86;99781.41;104813;1254;60531;-68
2023/08/09 11:28:07;;;;;;;;;;;;;;;26.83;40.56;99786.79;104632;1258;59797;-72
2023/08/09 11:30:35;;;;;;;1.30;1.20;;;;;;;26.73;40.47;99788.04;104368;1258;73258;-68
2023/08/09 11:33:04;;;;;;;1.20;1.10;;;;;;;26.67;40.48;99790.15;104517;1260;69451;-66
2023/08/09 11:35:43;;;;;;;1.30;1.20;;;;;;;26.62;42.09;99793.31;104454;1254;73347;-67
2023/08/09 11:38:16;;;;;;;1.60;1.50;;;;;;;26.60;42.19;99793.48;104199;1257;59849;-64
2023/08/09 11:40:45;;;;;;;5.00;1.30;;;;;;;26.60;42.25;99795.39;104292;1267;59973;-66